sensor_id;sensor_type;location;lat;lon;timestamp;P1;durP1;ratioP1;P2;durP2;ratioP2
31112;SDS011;17763;48.730;9.136;2023-03-01T00:01:11;27.88;;;18.58;;
31112;SDS011;17763;48.730;9.136;2023-03-01T00:03:38;27.17;;;18.27;;
31112;SDS011;17763;48.730;9.136;2023-03-01T00:06:04;25.40;;;18.25;;
31112;SDS011;17763;48.730;9.136;2023-03-01T00:08:31;28.27;;;17.55;;
31112;SDS011;17763;48.730;9.136;2023-03-01T00:11:04;25.85;;;17.50;;
31112;SDS011;17763;48.730;9.136;2023-03-01T00:13:30;25.92;;;17.42;;
31112;SDS011;17763;48.730;9.136;2023-03-01T00:15:56;28.33;;;19.02;;
31112;SDS011;17763;48.730;9.136;2023-03-01T00:18:22;27.02;;;17.70;;
31112;SDS011;17763;48.730;9.136;2023-03-01T00:20:49;29.58;;;17.80;;
31112;SDS011;17763;48.730;9.136;2023-03-01T00:23:16;27.02;;;16.98;;
31112;SDS011;17763;48.730;9.136;2023-03-01T00:25:42;29.77;;;18.42;;
31112;SDS011;17763;48.730;9.136;2023-03-01T00:28:08;27.33;;;17.75;;
31112;SDS011;17763;48.730;9.136;2023-03-01T00:30:36;28.90;;;18.67;;
31112;SDS011;17763;48.730;9.136;2023-03-01T00:33:02;30.40;;;19.30;;
31112;SDS011;17763;48.730;9.136;2023-03-01T00:35:27;28.75;;;17.73;;
31112;SDS011;17763;48.730;9.136;2023-03-01T00:37:53;28.17;;;18.73;;
31112;SDS011;17763;48.730;9.136;2023-03-01T00:40:25;29.85;;;18.08;;
31112;SDS011;17763;48.730;9.136;2023-03-01T00:42:57;29.98;;;17.95;;
31112;SDS011;17763;48.730;9.136;2023-03-01T00:45:23;30.35;;;19.02;;
31112;SDS011;17763;48.730;9.136;2023-03-01T00:47:49;28.02;;;18.95;;
31112;SDS011;17763;48.730;9.136;2023-03-01T00:50:19;27.33;;;18.70;;
31112;SDS011;17763;48.730;9.136;2023-03-01T00:52:45;30.20;;;18.65;;
31112;SDS011;17763;48.730;9.136;2023-03-01T00:55:11;32.35;;;19.48;;
31112;SDS011;17763;48.730;9.136;2023-03-01T00:57:37;30.65;;;18.55;;
31112;SDS011;17763;48.730;9.136;2023-03-01T01:00:06;29.40;;;18.33;;
31112;SDS011;17763;48.730;9.136;2023-03-01T01:02:33;30.40;;;18.40;;
31112;SDS011;17763;48.730;9.136;2023-03-01T01:04:59;31.02;;;19.08;;
31112;SDS011;17763;48.730;9.136;2023-03-01T01:07:25;30.00;;;18.08;;
31112;SDS011;17763;48.730;9.136;2023-03-01T01:09:50;29.13;;;18.45;;
31112;SDS011;17763;48.730;9.136;2023-03-01T01:12:16;29.20;;;19.42;;
31112;SDS011;17763;48.730;9.136;2023-03-01T01:14:42;29.52;;;18.80;;
31112;SDS011;17763;48.730;9.136;2023-03-01T01:17:07;31.15;;;18.85;;
31112;SDS011;17763;48.730;9.136;2023-03-01T01:19:33;30.13;;;17.75;;
31112;SDS011;17763;48.730;9.136;2023-03-01T01:22:03;28.65;;;17.55;;
31112;SDS011;17763;48.730;9.136;2023-03-01T01:24:29;31.50;;;19.58;;
31112;SDS011;17763;48.730;9.136;2023-03-01T01:26:55;28.42;;;17.35;;
31112;SDS011;17763;48.730;9.136;2023-03-01T01:29:23;28.15;;;18.60;;
31112;SDS011;17763;48.730;9.136;2023-03-01T01:31:48;28.80;;;17.50;;
31112;SDS011;17763;48.730;9.136;2023-03-01T01:34:15;33.30;;;19.65;;
31112;SDS011;17763;48.730;9.136;2023-03-01T01:36:47;27.13;;;18.15;;
31112;SDS011;17763;48.730;9.136;2023-03-01T01:39:14;28.67;;;17.88;;
31112;SDS011;17763;48.730;9.136;2023-03-01T01:41:40;26.85;;;17.23;;
31112;SDS011;17763;48.730;9.136;2023-03-01T01:49:31;26.90;;;17.83;;
31112;SDS011;17763;48.730;9.136;2023-03-01T01:52:14;29.58;;;17.25;;
31112;SDS011;17763;48.730;9.136;2023-03-01T01:54:44;31.60;;;18.02;;
31112;SDS011;17763;48.730;9.136;2023-03-01T01:57:22;31.80;;;18.45;;
31112;SDS011;17763;48.730;9.136;2023-03-01T01:59:53;25.83;;;17.52;;
31112;SDS011;17763;48.730;9.136;2023-03-01T02:02:22;30.83;;;18.85;;
31112;SDS011;17763;48.730;9.136;2023-03-01T02:04:50;33.15;;;19.60;;
31112;SDS011;17763;48.730;9.136;2023-03-01T02:07:34;30.30;;;18.48;;
31112;SDS011;17763;48.730;9.136;2023-03-01T02:10:00;33.70;;;19.17;;
31112;SDS011;17763;48.730;9.136;2023-03-01T02:12:27;30.27;;;19.05;;
31112;SDS011;17763;48.730;9.136;2023-03-01T02:14:53;28.42;;;18.73;;
31112;SDS011;17763;48.730;9.136;2023-03-01T02:17:19;32.50;;;18.92;;
31112;SDS011;17763;48.730;9.136;2023-03-01T02:22:32;30.73;;;19.63;;
31112;SDS011;17763;48.730;9.136;2023-03-01T02:30:30;32.33;;;18.48;;
31112;SDS011;17763;48.730;9.136;2023-03-01T02:32:57;30.20;;;18.60;;
31112;SDS011;17763;48.730;9.136;2023-03-01T02:35:27;30.50;;;19.10;;
31112;SDS011;17763;48.730;9.136;2023-03-01T02:37:55;31.30;;;19.17;;
31112;SDS011;17763;48.730;9.136;2023-03-01T02:40:22;27.33;;;17.50;;
31112;SDS011;17763;48.730;9.136;2023-03-01T02:42:51;31.60;;;19.52;;
31112;SDS011;17763;48.730;9.136;2023-03-01T02:45:23;29.20;;;18.55;;
31112;SDS011;17763;48.730;9.136;2023-03-01T02:47:53;27.38;;;18.63;;
31112;SDS011;17763;48.730;9.136;2023-03-01T02:55:39;29.58;;;19.50;;
31112;SDS011;17763;48.730;9.136;2023-03-01T02:58:05;30.77;;;19.13;;
31112;SDS011;17763;48.730;9.136;2023-03-01T03:00:33;32.95;;;19.42;;
31112;SDS011;17763;48.730;9.136;2023-03-01T03:03:05;29.70;;;18.20;;
31112;SDS011;17763;48.730;9.136;2023-03-01T03:05:32;31.50;;;19.80;;
31112;SDS011;17763;48.730;9.136;2023-03-01T03:07:59;32.58;;;19.88;;
31112;SDS011;17763;48.730;9.136;2023-03-01T03:12:59;31.95;;;19.73;;
31112;SDS011;17763;48.730;9.136;2023-03-01T03:15:30;33.20;;;19.25;;
31112;SDS011;17763;48.730;9.136;2023-03-01T03:17:57;33.25;;;20.17;;
31112;SDS011;17763;48.730;9.136;2023-03-01T03:20:26;33.22;;;19.27;;
31112;SDS011;17763;48.730;9.136;2023-03-01T03:22:54;30.83;;;19.45;;
31112;SDS011;17763;48.730;9.136;2023-03-01T03:25:21;29.15;;;19.23;;
31112;SDS011;17763;48.730;9.136;2023-03-01T03:27:48;34.25;;;19.52;;
31112;SDS011;17763;48.730;9.136;2023-03-01T03:30:21;29.52;;;18.65;;
31112;SDS011;17763;48.730;9.136;2023-03-01T03:32:48;30.30;;;19.52;;
31112;SDS011;17763;48.730;9.136;2023-03-01T03:37:55;30.98;;;19.40;;
31112;SDS011;17763;48.730;9.136;2023-03-01T03:40:27;32.72;;;20.15;;
31112;SDS011;17763;48.730;9.136;2023-03-01T03:42:55;31.50;;;20.50;;
31112;SDS011;17763;48.730;9.136;2023-03-01T03:45:21;33.17;;;18.45;;
31112;SDS011;17763;48.730;9.136;2023-03-01T03:47:47;31.52;;;19.58;;
31112;SDS011;17763;48.730;9.136;2023-03-01T03:50:13;31.73;;;18.92;;
31112;SDS011;17763;48.730;9.136;2023-03-01T03:52:40;33.10;;;19.50;;
31112;SDS011;17763;48.730;9.136;2023-03-01T03:55:07;32.03;;;19.70;;
31112;SDS011;17763;48.730;9.136;2023-03-01T03:57:35;33.35;;;20.33;;
31112;SDS011;17763;48.730;9.136;2023-03-01T04:00:02;29.23;;;19.40;;
31112;SDS011;17763;48.730;9.136;2023-03-01T04:02:30;31.67;;;19.73;;
31112;SDS011;17763;48.730;9.136;2023-03-01T04:04:56;34.47;;;22.20;;
31112;SDS011;17763;48.730;9.136;2023-03-01T04:07:21;33.80;;;19.67;;
31112;SDS011;17763;48.730;9.136;2023-03-01T04:09:47;36.08;;;20.90;;
31112;SDS011;17763;48.730;9.136;2023-03-01T04:12:13;31.50;;;18.45;;
31112;SDS011;17763;48.730;9.136;2023-03-01T04:14:49;31.65;;;20.38;;
31112;SDS011;17763;48.730;9.136;2023-03-01T04:17:14;36.13;;;21.15;;
31112;SDS011;17763;48.730;9.136;2023-03-01T04:19:40;33.30;;;20.95;;
31112;SDS011;17763;48.730;9.136;2023-03-01T04:22:09;32.75;;;20.65;;
31112;SDS011;17763;48.730;9.136;2023-03-01T04:24:36;33.25;;;20.75;;
31112;SDS011;17763;48.730;9.136;2023-03-01T04:27:02;33.33;;;20.70;;
31112;SDS011;17763;48.730;9.136;2023-03-01T04:29:28;34.10;;;20.05;;
31112;SDS011;17763;48.730;9.136;2023-03-01T04:31:53;36.25;;;21.25;;
31112;SDS011;17763;48.730;9.136;2023-03-01T04:34:19;38.95;;;22.20;;
31112;SDS011;17763;48.730;9.136;2023-03-01T04:36:44;35.53;;;21.10;;
31112;SDS011;17763;48.730;9.136;2023-03-01T04:39:10;32.72;;;20.33;;
31112;SDS011;17763;48.730;9.136;2023-03-01T04:41:39;34.75;;;20.35;;
31112;SDS011;17763;48.730;9.136;2023-03-01T04:44:06;30.20;;;19.40;;
31112;SDS011;17763;48.730;9.136;2023-03-01T04:46:32;34.22;;;21.23;;
31112;SDS011;17763;48.730;9.136;2023-03-01T04:48:57;31.38;;;20.58;;
31112;SDS011;17763;48.730;9.136;2023-03-01T04:51:25;33.42;;;21.08;;
31112;SDS011;17763;48.730;9.136;2023-03-01T04:53:51;32.97;;;20.60;;
31112;SDS011;17763;48.730;9.136;2023-03-01T04:56:17;36.95;;;21.27;;
31112;SDS011;17763;48.730;9.136;2023-03-01T04:58:43;32.05;;;20.48;;
31112;SDS011;17763;48.730;9.136;2023-03-01T05:01:13;34.58;;;20.90;;
31112;SDS011;17763;48.730;9.136;2023-03-01T05:03:44;34.67;;;21.50;;
31112;SDS011;17763;48.730;9.136;2023-03-01T05:06:10;32.58;;;20.60;;
31112;SDS011;17763;48.730;9.136;2023-03-01T05:08:40;33.67;;;21.38;;
31112;SDS011;17763;48.730;9.136;2023-03-01T05:11:07;31.83;;;20.88;;
31112;SDS011;17763;48.730;9.136;2023-03-01T05:13:34;31.05;;;20.35;;
31112;SDS011;17763;48.730;9.136;2023-03-01T05:16:01;31.75;;;20.27;;
31112;SDS011;17763;48.730;9.136;2023-03-01T05:18:31;34.22;;;20.58;;
31112;SDS011;17763;48.730;9.136;2023-03-01T05:21:04;32.30;;;20.33;;
31112;SDS011;17763;48.730;9.136;2023-03-01T05:23:32;31.73;;;19.65;;
31112;SDS011;17763;48.730;9.136;2023-03-01T05:26:04;35.67;;;20.38;;
31112;SDS011;17763;48.730;9.136;2023-03-01T05:28:33;36.08;;;20.95;;
31112;SDS011;17763;48.730;9.136;2023-03-01T05:30:58;35.47;;;21.80;;
31112;SDS011;17763;48.730;9.136;2023-03-01T05:33:24;35.15;;;20.52;;
31112;SDS011;17763;48.730;9.136;2023-03-01T05:35:51;35.25;;;20.98;;
31112;SDS011;17763;48.730;9.136;2023-03-01T05:38:18;33.20;;;20.92;;
31112;SDS011;17763;48.730;9.136;2023-03-01T05:40:45;35.05;;;22.63;;
31112;SDS011;17763;48.730;9.136;2023-03-01T05:43:13;35.28;;;21.90;;
31112;SDS011;17763;48.730;9.136;2023-03-01T05:45:40;30.23;;;20.45;;
31112;SDS011;17763;48.730;9.136;2023-03-01T05:48:09;38.17;;;22.17;;
31112;SDS011;17763;48.730;9.136;2023-03-01T05:50:45;32.10;;;19.52;;
31112;SDS011;17763;48.730;9.136;2023-03-01T05:53:13;38.63;;;22.73;;
31112;SDS011;17763;48.730;9.136;2023-03-01T05:55:43;37.97;;;20.65;;
31112;SDS011;17763;48.730;9.136;2023-03-01T05:58:13;33.55;;;21.30;;
31112;SDS011;17763;48.730;9.136;2023-03-01T06:00:44;35.47;;;21.45;;
31112;SDS011;17763;48.730;9.136;2023-03-01T06:03:11;34.33;;;21.52;;
31112;SDS011;17763;48.730;9.136;2023-03-01T06:05:39;37.15;;;21.92;;
31112;SDS011;17763;48.730;9.136;2023-03-01T06:08:05;34.55;;;20.23;;
31112;SDS011;17763;48.730;9.136;2023-03-01T06:10:31;38.28;;;22.52;;
31112;SDS011;17763;48.730;9.136;2023-03-01T06:12:59;35.17;;;21.23;;
31112;SDS011;17763;48.730;9.136;2023-03-01T06:15:27;37.13;;;22.63;;
31112;SDS011;17763;48.730;9.136;2023-03-01T06:17:53;37.45;;;21.90;;
31112;SDS011;17763;48.730;9.136;2023-03-01T06:20:24;31.70;;;21.55;;
31112;SDS011;17763;48.730;9.136;2023-03-01T06:22:51;35.67;;;21.83;;
31112;SDS011;17763;48.730;9.136;2023-03-01T06:25:18;32.70;;;21.48;;
31112;SDS011;17763;48.730;9.136;2023-03-01T06:27:46;34.65;;;20.65;;
31112;SDS011;17763;48.730;9.136;2023-03-01T06:30:14;36.28;;;22.63;;
31112;SDS011;17763;48.730;9.136;2023-03-01T06:32:40;35.35;;;20.80;;
31112;SDS011;17763;48.730;9.136;2023-03-01T06:35:10;33.78;;;21.42;;
31112;SDS011;17763;48.730;9.136;2023-03-01T06:37:36;34.00;;;20.27;;
31112;SDS011;17763;48.730;9.136;2023-03-01T06:40:03;31.70;;;20.08;;
31112;SDS011;17763;48.730;9.136;2023-03-01T06:42:33;35.63;;;22.00;;
31112;SDS011;17763;48.730;9.136;2023-03-01T06:45:04;33.90;;;21.83;;
31112;SDS011;17763;48.730;9.136;2023-03-01T06:47:31;37.45;;;22.05;;
31112;SDS011;17763;48.730;9.136;2023-03-01T06:49:58;39.47;;;21.77;;
31112;SDS011;17763;48.730;9.136;2023-03-01T06:52:27;34.05;;;22.33;;
31112;SDS011;17763;48.730;9.136;2023-03-01T06:54:53;38.60;;;22.10;;
31112;SDS011;17763;48.730;9.136;2023-03-01T06:57:19;34.25;;;21.05;;
31112;SDS011;17763;48.730;9.136;2023-03-01T06:59:46;36.70;;;22.45;;
31112;SDS011;17763;48.730;9.136;2023-03-01T07:02:14;34.03;;;21.85;;
31112;SDS011;17763;48.730;9.136;2023-03-01T07:04:40;36.15;;;21.45;;
31112;SDS011;17763;48.730;9.136;2023-03-01T07:07:07;35.58;;;21.80;;
31112;SDS011;17763;48.730;9.136;2023-03-01T07:09:32;34.38;;;20.50;;
31112;SDS011;17763;48.730;9.136;2023-03-01T07:11:58;34.40;;;20.75;;
31112;SDS011;17763;48.730;9.136;2023-03-01T07:14:24;36.60;;;23.25;;
31112;SDS011;17763;48.730;9.136;2023-03-01T07:16:51;37.15;;;22.15;;
31112;SDS011;17763;48.730;9.136;2023-03-01T07:19:20;35.80;;;21.75;;
31112;SDS011;17763;48.730;9.136;2023-03-01T07:21:46;34.30;;;21.95;;
31112;SDS011;17763;48.730;9.136;2023-03-01T07:24:12;35.28;;;22.35;;
31112;SDS011;17763;48.730;9.136;2023-03-01T07:26:38;35.97;;;22.60;;
31112;SDS011;17763;48.730;9.136;2023-03-01T07:29:04;37.03;;;21.65;;
31112;SDS011;17763;48.730;9.136;2023-03-01T07:31:31;36.38;;;21.90;;
31112;SDS011;17763;48.730;9.136;2023-03-01T07:33:57;38.15;;;22.75;;
31112;SDS011;17763;48.730;9.136;2023-03-01T07:36:26;38.45;;;22.27;;
31112;SDS011;17763;48.730;9.136;2023-03-01T07:38:52;35.00;;;21.83;;
31112;SDS011;17763;48.730;9.136;2023-03-01T07:41:17;36.13;;;21.95;;
31112;SDS011;17763;48.730;9.136;2023-03-01T07:43:43;38.88;;;22.42;;
31112;SDS011;17763;48.730;9.136;2023-03-01T07:46:11;37.67;;;23.27;;
31112;SDS011;17763;48.730;9.136;2023-03-01T07:48:37;38.40;;;22.10;;
31112;SDS011;17763;48.730;9.136;2023-03-01T07:51:03;31.23;;;21.77;;
31112;SDS011;17763;48.730;9.136;2023-03-01T07:53:31;36.80;;;23.17;;
31112;SDS011;17763;48.730;9.136;2023-03-01T07:56:06;36.75;;;21.95;;
31112;SDS011;17763;48.730;9.136;2023-03-01T07:58:35;40.60;;;24.20;;
31112;SDS011;17763;48.730;9.136;2023-03-01T08:01:02;38.45;;;23.02;;
31112;SDS011;17763;48.730;9.136;2023-03-01T08:03:34;39.00;;;23.77;;
31112;SDS011;17763;48.730;9.136;2023-03-01T08:06:01;38.65;;;24.13;;
31112;SDS011;17763;48.730;9.136;2023-03-01T08:08:28;34.30;;;22.35;;
31112;SDS011;17763;48.730;9.136;2023-03-01T08:10:57;42.25;;;24.60;;
31112;SDS011;17763;48.730;9.136;2023-03-01T08:13:24;39.67;;;24.40;;
31112;SDS011;17763;48.730;9.136;2023-03-01T08:15:49;38.63;;;23.77;;
31112;SDS011;17763;48.730;9.136;2023-03-01T08:18:16;40.28;;;22.88;;
31112;SDS011;17763;48.730;9.136;2023-03-01T08:20:42;37.97;;;23.00;;
31112;SDS011;17763;48.730;9.136;2023-03-01T08:23:08;37.10;;;23.08;;
31112;SDS011;17763;48.730;9.136;2023-03-01T08:25:33;40.30;;;23.25;;
31112;SDS011;17763;48.730;9.136;2023-03-01T08:28:01;34.08;;;22.77;;
31112;SDS011;17763;48.730;9.136;2023-03-01T08:30:27;37.25;;;22.38;;
31112;SDS011;17763;48.730;9.136;2023-03-01T08:32:53;38.42;;;24.02;;
31112;SDS011;17763;48.730;9.136;2023-03-01T08:35:19;39.65;;;23.77;;
31112;SDS011;17763;48.730;9.136;2023-03-01T08:37:46;42.85;;;24.98;;
31112;SDS011;17763;48.730;9.136;2023-03-01T08:40:12;41.67;;;24.67;;
31112;SDS011;17763;48.730;9.136;2023-03-01T08:42:39;41.22;;;24.38;;
31112;SDS011;17763;48.730;9.136;2023-03-01T08:45:06;36.40;;;23.13;;
31112;SDS011;17763;48.730;9.136;2023-03-01T08:47:32;39.15;;;23.85;;
31112;SDS011;17763;48.730;9.136;2023-03-01T08:50:01;41.97;;;24.58;;
31112;SDS011;17763;48.730;9.136;2023-03-01T08:52:27;38.65;;;23.90;;
31112;SDS011;17763;48.730;9.136;2023-03-01T08:54:53;42.65;;;24.95;;
31112;SDS011;17763;48.730;9.136;2023-03-01T08:57:21;37.45;;;23.65;;
31112;SDS011;17763;48.730;9.136;2023-03-01T08:59:47;38.78;;;23.67;;
31112;SDS011;17763;48.730;9.136;2023-03-01T09:02:14;40.70;;;25.17;;
31112;SDS011;17763;48.730;9.136;2023-03-01T09:04:41;42.67;;;25.27;;
31112;SDS011;17763;48.730;9.136;2023-03-01T09:07:07;38.97;;;23.63;;
31112;SDS011;17763;48.730;9.136;2023-03-01T09:09:33;37.45;;;23.33;;
31112;SDS011;17763;48.730;9.136;2023-03-01T09:12:00;37.53;;;24.05;;
31112;SDS011;17763;48.730;9.136;2023-03-01T09:14:29;42.10;;;24.70;;
31112;SDS011;17763;48.730;9.136;2023-03-01T09:16:55;41.50;;;25.83;;
31112;SDS011;17763;48.730;9.136;2023-03-01T09:19:22;42.50;;;25.13;;
31112;SDS011;17763;48.730;9.136;2023-03-01T09:21:47;42.92;;;24.00;;
31112;SDS011;17763;48.730;9.136;2023-03-01T09:24:21;43.08;;;24.98;;
31112;SDS011;17763;48.730;9.136;2023-03-01T09:26:48;41.03;;;24.75;;
31112;SDS011;17763;48.730;9.136;2023-03-01T09:29:15;37.15;;;23.98;;
31112;SDS011;17763;48.730;9.136;2023-03-01T09:31:41;41.03;;;24.38;;
31112;SDS011;17763;48.730;9.136;2023-03-01T09:34:10;38.33;;;23.75;;
31112;SDS011;17763;48.730;9.136;2023-03-01T09:36:36;40.53;;;25.05;;
31112;SDS011;17763;48.730;9.136;2023-03-01T09:39:02;40.70;;;23.73;;
31112;SDS011;17763;48.730;9.136;2023-03-01T09:47:01;31.70;;;21.67;;
31112;SDS011;17763;48.730;9.136;2023-03-01T09:49:28;35.63;;;22.48;;
31112;SDS011;17763;48.730;9.136;2023-03-01T09:52:12;39.55;;;23.20;;
31112;SDS011;17763;48.730;9.136;2023-03-01T09:55:08;37.83;;;23.48;;
31112;SDS011;17763;48.730;9.136;2023-03-01T09:57:39;37.17;;;23.60;;
31112;SDS011;17763;48.730;9.136;2023-03-01T10:05:44;35.63;;;22.67;;
31112;SDS011;17763;48.730;9.136;2023-03-01T10:11:12;39.33;;;22.10;;
31112;SDS011;17763;48.730;9.136;2023-03-01T10:16:41;34.78;;;22.33;;
31112;SDS011;17763;48.730;9.136;2023-03-01T10:19:21;38.53;;;22.73;;
31112;SDS011;17763;48.730;9.136;2023-03-01T10:21:55;36.28;;;23.50;;
31112;SDS011;17763;48.730;9.136;2023-03-01T10:24:46;36.33;;;21.20;;
31112;SDS011;17763;48.730;9.136;2023-03-01T10:27:21;37.58;;;23.88;;
31112;SDS011;17763;48.730;9.136;2023-03-01T10:32:45;35.42;;;22.23;;
31112;SDS011;17763;48.730;9.136;2023-03-01T10:35:24;35.10;;;23.00;;
31112;SDS011;17763;48.730;9.136;2023-03-01T10:38:08;33.60;;;22.83;;
31112;SDS011;17763;48.730;9.136;2023-03-01T10:40:35;30.63;;;21.80;;
31112;SDS011;17763;48.730;9.136;2023-03-01T10:43:15;37.45;;;22.30;;
31112;SDS011;17763;48.730;9.136;2023-03-01T10:45:43;34.50;;;23.40;;
31112;SDS011;17763;48.730;9.136;2023-03-01T10:50:39;37.78;;;23.45;;
31112;SDS011;17763;48.730;9.136;2023-03-01T10:55:56;39.55;;;23.33;;
31112;SDS011;17763;48.730;9.136;2023-03-01T10:58:26;36.08;;;23.08;;
31112;SDS011;17763;48.730;9.136;2023-03-01T11:03:29;37.55;;;23.70;;
31112;SDS011;17763;48.730;9.136;2023-03-01T11:05:59;35.80;;;23.05;;
31112;SDS011;17763;48.730;9.136;2023-03-01T11:08:29;35.40;;;22.05;;
31112;SDS011;17763;48.730;9.136;2023-03-01T11:13:51;31.95;;;20.55;;
31112;SDS011;17763;48.730;9.136;2023-03-01T11:16:22;35.40;;;22.95;;
31112;SDS011;17763;48.730;9.136;2023-03-01T11:21:39;35.22;;;22.55;;
31112;SDS011;17763;48.730;9.136;2023-03-01T11:24:30;33.50;;;21.52;;
31112;SDS011;17763;48.730;9.136;2023-03-01T11:27:18;33.35;;;21.50;;
31112;SDS011;17763;48.730;9.136;2023-03-01T11:30:31;34.53;;;22.88;;
31112;SDS011;17763;48.730;9.136;2023-03-01T11:35:27;31.83;;;21.80;;
31112;SDS011;17763;48.730;9.136;2023-03-01T11:40:44;36.33;;;21.65;;
31112;SDS011;17763;48.730;9.136;2023-03-01T11:48:23;33.35;;;20.08;;
31112;SDS011;17763;48.730;9.136;2023-03-01T11:51:14;28.10;;;19.77;;
31112;SDS011;17763;48.730;9.136;2023-03-01T11:56:31;30.55;;;21.38;;
31112;SDS011;17763;48.730;9.136;2023-03-01T12:07:15;28.25;;;18.85;;
31112;SDS011;17763;48.730;9.136;2023-03-01T12:09:57;31.52;;;19.73;;
31112;SDS011;17763;48.730;9.136;2023-03-01T12:12:29;38.92;;;23.67;;
31112;SDS011;17763;48.730;9.136;2023-03-01T12:20:49;32.55;;;21.33;;
31112;SDS011;17763;48.730;9.136;2023-03-01T12:29:08;31.30;;;20.25;;
31112;SDS011;17763;48.730;9.136;2023-03-01T12:32:00;30.77;;;21.58;;
31112;SDS011;17763;48.730;9.136;2023-03-01T12:37:25;30.73;;;19.48;;
31112;SDS011;17763;48.730;9.136;2023-03-01T12:40:03;29.00;;;19.52;;
31112;SDS011;17763;48.730;9.136;2023-03-01T12:48:30;31.23;;;20.60;;
31112;SDS011;17763;48.730;9.136;2023-03-01T12:51:18;29.73;;;19.17;;
31112;SDS011;17763;48.730;9.136;2023-03-01T12:53:53;30.70;;;19.80;;
31112;SDS011;17763;48.730;9.136;2023-03-01T12:56:22;31.75;;;20.50;;
31112;SDS011;17763;48.730;9.136;2023-03-01T12:59:02;30.00;;;20.13;;
31112;SDS011;17763;48.730;9.136;2023-03-01T13:07:43;27.50;;;18.50;;
31112;SDS011;17763;48.730;9.136;2023-03-01T13:10:43;25.60;;;17.77;;
31112;SDS011;17763;48.730;9.136;2023-03-01T13:13:24;29.17;;;19.88;;
31112;SDS011;17763;48.730;9.136;2023-03-01T13:15:51;26.85;;;19.48;;
31112;SDS011;17763;48.730;9.136;2023-03-01T13:33:46;24.48;;;18.00;;
31112;SDS011;17763;48.730;9.136;2023-03-01T13:37:03;25.63;;;17.48;;
31112;SDS011;17763;48.730;9.136;2023-03-01T13:39:05;24.92;;;17.67;;
31112;SDS011;17763;48.730;9.136;2023-03-01T13:41:57;26.35;;;17.23;;
31112;SDS011;17763;48.730;9.136;2023-03-01T13:44:37;23.98;;;17.60;;
31112;SDS011;17763;48.730;9.136;2023-03-01T13:47:08;25.25;;;17.50;;
31112;SDS011;17763;48.730;9.136;2023-03-01T13:55:03;28.50;;;18.08;;
31112;SDS011;17763;48.730;9.136;2023-03-01T13:57:57;26.77;;;17.80;;
31112;SDS011;17763;48.730;9.136;2023-03-01T14:00:33;27.10;;;18.98;;
31112;SDS011;17763;48.730;9.136;2023-03-01T14:03:05;26.58;;;18.77;;
31112;SDS011;17763;48.730;9.136;2023-03-01T14:05:35;30.17;;;20.58;;
31112;SDS011;17763;48.730;9.136;2023-03-01T14:08:05;30.85;;;19.02;;
31112;SDS011;17763;48.730;9.136;2023-03-01T14:10:48;29.10;;;20.13;;
31112;SDS011;17763;48.730;9.136;2023-03-01T14:13:21;27.92;;;19.65;;
31112;SDS011;17763;48.730;9.136;2023-03-01T14:18:33;30.45;;;20.83;;
31112;SDS011;17763;48.730;9.136;2023-03-01T14:21:08;30.67;;;21.15;;
31112;SDS011;17763;48.730;9.136;2023-03-01T14:23:34;37.40;;;22.50;;
31112;SDS011;17763;48.730;9.136;2023-03-01T14:26:03;35.10;;;22.67;;
31112;SDS011;17763;48.730;9.136;2023-03-01T14:28:33;32.17;;;21.75;;
31112;SDS011;17763;48.730;9.136;2023-03-01T14:31:05;34.07;;;24.00;;
31112;SDS011;17763;48.730;9.136;2023-03-01T14:34:16;32.50;;;21.90;;
31112;SDS011;17763;48.730;9.136;2023-03-01T14:36:44;31.10;;;21.52;;
31112;SDS011;17763;48.730;9.136;2023-03-01T14:39:17;35.10;;;22.13;;
31112;SDS011;17763;48.730;9.136;2023-03-01T14:41:44;36.03;;;22.88;;
31112;SDS011;17763;48.730;9.136;2023-03-01T14:44:19;32.35;;;21.40;;
31112;SDS011;17763;48.730;9.136;2023-03-01T14:46:51;30.13;;;20.98;;
31112;SDS011;17763;48.730;9.136;2023-03-01T14:49:22;33.00;;;22.23;;
31112;SDS011;17763;48.730;9.136;2023-03-01T14:52:00;38.10;;;23.00;;
31112;SDS011;17763;48.730;9.136;2023-03-01T14:56:57;37.10;;;23.02;;
31112;SDS011;17763;48.730;9.136;2023-03-01T14:59:26;33.38;;;22.33;;
31112;SDS011;17763;48.730;9.136;2023-03-01T15:01:53;35.88;;;22.42;;
31112;SDS011;17763;48.730;9.136;2023-03-01T15:04:21;36.08;;;22.05;;
31112;SDS011;17763;48.730;9.136;2023-03-01T15:06:51;31.38;;;22.30;;
31112;SDS011;17763;48.730;9.136;2023-03-01T15:09:19;32.58;;;22.08;;
31112;SDS011;17763;48.730;9.136;2023-03-01T15:11:46;31.35;;;22.35;;
31112;SDS011;17763;48.730;9.136;2023-03-01T15:14:26;37.38;;;22.52;;
31112;SDS011;17763;48.730;9.136;2023-03-01T15:17:04;29.27;;;20.13;;
31112;SDS011;17763;48.730;9.136;2023-03-01T15:19:30;31.27;;;20.98;;
31112;SDS011;17763;48.730;9.136;2023-03-01T15:21:58;30.98;;;21.73;;
31112;SDS011;17763;48.730;9.136;2023-03-01T15:24:24;32.25;;;21.80;;
31112;SDS011;17763;48.730;9.136;2023-03-01T15:26:56;32.33;;;21.85;;
31112;SDS011;17763;48.730;9.136;2023-03-01T15:29:27;31.25;;;22.10;;
31112;SDS011;17763;48.730;9.136;2023-03-01T15:34:29;33.70;;;21.92;;
31112;SDS011;17763;48.730;9.136;2023-03-01T15:36:58;29.55;;;21.23;;
31112;SDS011;17763;48.730;9.136;2023-03-01T15:39:36;31.40;;;20.83;;
31112;SDS011;17763;48.730;9.136;2023-03-01T15:42:41;31.60;;;21.08;;
31112;SDS011;17763;48.730;9.136;2023-03-01T15:47:51;28.30;;;19.50;;
31112;SDS011;17763;48.730;9.136;2023-03-01T15:50:33;29.30;;;21.63;;
31112;SDS011;17763;48.730;9.136;2023-03-01T15:53:04;33.58;;;22.33;;
31112;SDS011;17763;48.730;9.136;2023-03-01T15:55:36;32.53;;;20.67;;
31112;SDS011;17763;48.730;9.136;2023-03-01T15:58:15;31.50;;;22.08;;
31112;SDS011;17763;48.730;9.136;2023-03-01T16:00:45;32.28;;;21.55;;
31112;SDS011;17763;48.730;9.136;2023-03-01T16:03:13;32.17;;;21.48;;
31112;SDS011;17763;48.730;9.136;2023-03-01T16:05:41;32.90;;;20.40;;
31112;SDS011;17763;48.730;9.136;2023-03-01T16:08:08;33.28;;;21.65;;
31112;SDS011;17763;48.730;9.136;2023-03-01T16:10:34;30.60;;;21.08;;
31112;SDS011;17763;48.730;9.136;2023-03-01T16:13:00;32.13;;;21.35;;
31112;SDS011;17763;48.730;9.136;2023-03-01T16:15:27;38.13;;;23.70;;
31112;SDS011;17763;48.730;9.136;2023-03-01T16:17:54;33.33;;;20.88;;
31112;SDS011;17763;48.730;9.136;2023-03-01T16:20:21;31.67;;;21.55;;
31112;SDS011;17763;48.730;9.136;2023-03-01T16:22:47;31.05;;;20.52;;
31112;SDS011;17763;48.730;9.136;2023-03-01T16:25:15;33.70;;;20.05;;
31112;SDS011;17763;48.730;9.136;2023-03-01T16:27:42;30.05;;;20.48;;
31112;SDS011;17763;48.730;9.136;2023-03-01T16:30:09;29.20;;;21.25;;
31112;SDS011;17763;48.730;9.136;2023-03-01T16:32:42;30.58;;;20.08;;
31112;SDS011;17763;48.730;9.136;2023-03-01T16:35:10;32.47;;;21.70;;
31112;SDS011;17763;48.730;9.136;2023-03-01T16:37:38;29.15;;;20.02;;
31112;SDS011;17763;48.730;9.136;2023-03-01T16:40:05;30.58;;;20.45;;
31112;SDS011;17763;48.730;9.136;2023-03-01T16:42:36;30.27;;;20.17;;
31112;SDS011;17763;48.730;9.136;2023-03-01T16:45:02;32.05;;;19.92;;
31112;SDS011;17763;48.730;9.136;2023-03-01T16:47:31;30.92;;;20.48;;
31112;SDS011;17763;48.730;9.136;2023-03-01T16:49:58;31.77;;;21.80;;
31112;SDS011;17763;48.730;9.136;2023-03-01T16:52:24;30.88;;;20.42;;